createdAt,value
2019-06-20T03:37:34.189Z,52.00
2019-06-20T03:38:34.384Z,44.00
2019-06-20T03:40:31.848Z,44.00
2019-06-20T03:41:31.274Z,56.00
2019-06-20T03:42:33.168Z,60.00
2019-06-20T03:43:31.420Z,68.00
2019-06-20T03:44:31.775Z,80.00
2019-06-20T03:47:03.099Z,96.00
2019-06-20T03:48:02.796Z,96.00
2019-06-20T03:49:03.193Z,88.00
2019-06-20T03:50:02.665Z,96.00
2019-06-20T03:51:02.748Z,100.00
2019-06-20T03:52:02.612Z,96.00
2019-06-20T03:53:02.566Z,104.00
2019-06-20T03:54:02.589Z,108.00
2019-06-20T03:55:02.502Z,104.00
2019-06-20T03:56:02.459Z,100.00
2019-06-20T03:57:02.421Z,112.00
2019-06-20T03:58:02.386Z,128.00
2019-06-20T03:59:02.357Z,148.00
2019-06-20T04:00:02.667Z,160.00
2019-06-20T04:01:02.284Z,168.00
2019-06-20T04:02:02.247Z,180.00
2019-06-20T04:03:02.211Z,212.00
2019-06-20T04:04:02.185Z,232.00
2019-06-20T04:05:02.147Z,240.00
2019-06-20T04:06:02.111Z,248.00
2019-06-20T04:07:02.074Z,272.00
2019-06-20T04:08:02.039Z,304.00
2019-06-20T04:09:02.014Z,344.00
2019-06-20T04:10:01.968Z,416.00
2019-06-20T04:11:01.936Z,476.00
2019-06-20T04:12:01.902Z,536.00
2019-06-20T04:13:01.867Z,600.00
2019-06-20T04:14:01.834Z,688.00
2019-06-20T04:15:17.550Z,696.00
2019-06-20T04:16:01.762Z,740.00
2019-06-20T04:17:01.731Z,820.00
2019-06-20T04:18:01.696Z,860.00
2019-06-20T04:19:01.667Z,856.00
2019-06-20T04:20:01.678Z,1012.00
2019-06-20T04:21:01.591Z,1212.00
2019-06-20T04:22:01.558Z,1248.00
2019-06-20T04:23:01.524Z,1252.00
2019-06-20T04:24:01.493Z,1256.00
2019-06-20T04:25:01.454Z,1328.00
2019-06-20T04:26:01.421Z,1368.00
2019-06-20T04:27:01.427Z,1404.00
2019-06-20T04:28:01.349Z,1452.00
2019-06-20T04:29:01.362Z,1432.00
2019-06-20T04:30:01.282Z,1448.00
2019-06-20T04:31:01.276Z,1520.00
2019-06-20T04:32:01.219Z,1748.00
2019-06-20T04:33:01.181Z,1636.00
2019-06-20T04:34:01.147Z,1536.00
2019-06-20T04:35:01.113Z,1444.00
2019-06-20T04:36:01.079Z,1452.00
2019-06-20T04:37:01.043Z,1520.00
2019-06-20T04:38:01.010Z,1508.00
2019-06-20T04:39:00.974Z,1472.00
2019-06-20T04:40:00.943Z,1472.00
2019-06-20T04:41:00.903Z,1304.00
2019-06-20T04:42:00.871Z,1268.00
2019-06-20T04:43:00.844Z,1228.00
2019-06-20T04:44:00.808Z,1192.00
2019-06-20T04:45:00.773Z,1148.00
2019-06-20T04:46:00.766Z,1104.00
2019-06-20T04:47:00.706Z,1064.00
2019-06-20T04:48:00.666Z,988.00
2019-06-20T04:49:00.637Z,900.00
2019-06-20T04:50:00.602Z,784.00
2019-06-20T04:51:00.569Z,772.00
2019-06-20T04:52:00.533Z,624.00
2019-06-20T04:53:00.495Z,588.00
2019-06-20T04:54:00.468Z,552.00
2019-06-20T04:55:00.480Z,536.00
2019-06-20T04:56:00.403Z,512.00
2019-06-20T04:57:00.367Z,516.00
2019-06-20T04:58:00.331Z,520.00
2019-06-20T04:59:00.294Z,508.00
2019-06-20T05:00:00.259Z,520.00
2019-06-20T05:01:00.226Z,528.00
2019-06-20T05:02:00.190Z,524.00
2019-06-20T05:03:00.175Z,560.00
2019-06-20T05:04:00.210Z,576.00
2019-06-20T05:05:00.098Z,592.00
2019-06-20T05:06:00.059Z,636.00
2019-06-20T05:07:00.040Z,656.00
2019-06-20T05:07:59.992Z,656.00
2019-06-20T05:09:00.236Z,688.00
2019-06-20T05:10:00.121Z,724.00
2019-06-20T05:10:59.890Z,728.00
2019-06-20T05:11:59.901Z,764.00
2019-06-20T05:12:59.813Z,824.00
2019-06-20T05:13:59.784Z,848.00
2019-06-20T05:14:59.752Z,956.00
2019-06-20T05:15:59.718Z,996.00
2019-06-20T05:16:59.683Z,1112.00
2019-06-20T05:17:59.649Z,1140.00
2019-06-20T05:18:59.614Z,1196.00
2019-06-20T05:19:59.579Z,1296.00
2019-06-20T05:20:59.549Z,1376.00
2019-06-20T05:21:59.511Z,1364.00
2019-06-20T05:22:59.478Z,1364.00
2019-06-20T05:23:59.443Z,1352.00
2019-06-20T05:24:59.407Z,1464.00
2019-06-20T05:25:59.377Z,1612.00
2019-06-20T05:26:59.346Z,1784.00
2019-06-20T05:27:59.311Z,1976.00
2019-06-20T05:28:59.277Z,2080.00
2019-06-20T05:29:59.252Z,2124.00
2019-06-20T05:30:59.204Z,2236.00
2019-06-20T05:31:59.170Z,2348.00
2019-06-20T05:32:59.174Z,2464.00
2019-06-20T05:33:59.106Z,2748.00
2019-06-20T05:35:02.787Z,2640.00
2019-06-20T05:35:59.050Z,2332.00
2019-06-20T05:36:59.040Z,2240.00
2019-06-20T05:37:58.967Z,2140.00
2019-06-20T05:38:58.940Z,2064.00
2019-06-20T05:39:58.904Z,1984.00
2019-06-20T05:40:58.870Z,1916.00
2019-06-20T05:41:58.841Z,1876.00
2019-06-20T05:42:58.836Z,1860.00
2019-06-20T05:43:58.765Z,1868.00
2019-06-20T05:44:58.732Z,1880.00
2019-06-20T05:46:08.801Z,1896.00
2019-06-20T05:47:12.012Z,1912.00
2019-06-20T05:47:58.632Z,1904.00
2019-06-20T05:48:58.598Z,1896.00
2019-06-20T05:49:58.567Z,1892.00
2019-06-20T05:50:58.602Z,1912.00
2019-06-20T05:51:59.389Z,2564.00
2019-06-20T05:52:58.489Z,1928.00
2019-06-20T05:53:58.434Z,1920.00
2019-06-20T05:54:58.392Z,1948.00
2019-06-20T05:55:58.361Z,1976.00
2019-06-20T05:56:58.329Z,1924.00
2019-06-20T05:57:58.292Z,1764.00
2019-06-20T05:58:58.263Z,1708.00
2019-06-20T05:59:58.231Z,1772.00
2019-06-20T06:00:58.197Z,1864.00
2019-06-20T06:01:58.322Z,1980.00
2019-06-20T06:02:58.238Z,1996.00
2019-06-20T06:03:58.095Z,2024.00
2019-06-20T06:04:58.065Z,2100.00
2019-06-20T06:05:58.025Z,2188.00
2019-06-20T06:06:58.065Z,2396.00
2019-06-20T06:07:58.452Z,3116.00
2019-06-20T06:08:57.926Z,2920.00
2019-06-20T06:09:57.894Z,2524.00
2019-06-20T06:10:57.867Z,2360.00
2019-06-20T06:11:57.826Z,2676.00
2019-06-20T06:12:57.794Z,2984.00
2019-06-20T06:13:57.762Z,3288.00
2019-06-20T06:15:00.739Z,3640.00
2019-06-20T06:15:57.741Z,3664.00
2019-06-20T06:16:57.659Z,3508.00
2019-06-20T06:17:57.625Z,3412.00
2019-06-20T06:18:57.597Z,3128.00
2019-06-20T06:19:57.569Z,3036.00
2019-06-20T06:20:57.523Z,3064.00
2019-06-20T06:21:57.504Z,3200.00
2019-06-20T06:22:57.453Z,3220.00
2019-06-20T06:23:57.422Z,3400.00
2019-06-20T06:24:57.393Z,3600.00
2019-06-20T06:25:57.362Z,3748.00
2019-06-20T06:26:59.956Z,3912.00
2019-06-20T06:27:57.293Z,3804.00
2019-06-20T06:28:57.263Z,3704.00
2019-06-20T06:29:57.222Z,3804.00
2019-06-20T06:30:57.195Z,4144.00
2019-06-20T06:31:57.159Z,4328.00
2019-06-20T06:32:57.126Z,4172.00
2019-06-20T06:33:57.096Z,4052.00
2019-06-20T06:34:57.062Z,3884.00
2019-06-20T06:35:57.023Z,3744.00
2019-06-20T06:36:56.995Z,3472.00
2019-06-20T06:37:56.954Z,3136.00
2019-06-20T06:38:56.926Z,2932.00
2019-06-20T06:39:56.893Z,2916.00
2019-06-20T06:40:56.856Z,3156.00
2019-06-20T06:41:56.823Z,3372.00
2019-06-20T06:42:56.795Z,3368.00
2019-06-20T06:43:56.820Z,3060.00
2019-06-20T06:44:56.760Z,2908.00
2019-06-20T06:45:56.744Z,2980.00
2019-06-20T06:46:59.572Z,3340.00
2019-06-20T06:47:56.633Z,3508.00
2019-06-20T06:48:56.603Z,3420.00
2019-06-20T06:49:56.588Z,3316.00
2019-06-20T06:50:56.558Z,3228.00
2019-06-20T06:51:56.614Z,3212.00
2019-06-20T06:52:56.487Z,3128.00
2019-06-20T06:53:56.438Z,3096.00
2019-06-20T06:54:56.391Z,3076.00
2019-06-20T06:55:56.365Z,3060.00
2019-06-20T06:56:56.339Z,2984.00
2019-06-20T06:57:56.317Z,2912.00
2019-06-20T06:58:56.268Z,2804.00
2019-06-20T06:59:56.231Z,2736.00
2019-06-20T07:00:56.216Z,2732.00
2019-06-20T07:01:56.199Z,2808.00
2019-06-20T07:02:56.181Z,2880.00
2019-06-20T07:03:56.125Z,2948.00
2019-06-20T07:04:56.070Z,2964.00
2019-06-20T07:05:56.043Z,2972.00
2019-06-20T07:06:56.045Z,3076.00
2019-06-20T07:07:55.971Z,3196.00
2019-06-20T07:08:55.972Z,3460.00
2019-06-20T07:09:55.941Z,3876.00
2019-06-20T07:10:55.876Z,4280.00
2019-06-20T07:11:55.838Z,4380.00
2019-06-20T07:12:55.803Z,4568.00
2019-06-20T07:13:55.772Z,5020.00
2019-06-20T07:14:55.815Z,5640.00
2019-06-20T07:15:55.912Z,5328.00
2019-06-20T07:17:00.179Z,5016.00
2019-06-20T07:17:55.740Z,4728.00
2019-06-20T07:18:55.641Z,4580.00
2019-06-20T07:19:55.573Z,4508.00
2019-06-20T07:20:55.567Z,4408.00
2019-06-20T07:21:55.508Z,4340.00
2019-06-20T07:22:55.577Z,4292.00
2019-06-20T07:23:55.471Z,4356.00
2019-06-20T07:24:55.504Z,4420.00
2019-06-20T07:25:55.384Z,4412.00
2019-06-20T07:26:55.339Z,4296.00
2019-06-20T07:27:55.341Z,4252.00
2019-06-20T07:28:55.280Z,4276.00
2019-06-20T07:29:55.255Z,4280.00
2019-06-20T07:30:55.209Z,4260.00
2019-06-20T07:31:55.212Z,4284.00
2019-06-20T07:32:55.155Z,4288.00
2019-06-20T07:33:55.107Z,4288.00
2019-06-20T07:34:55.200Z,4444.00
2019-06-20T07:35:55.090Z,4644.00
2019-06-20T07:36:55.015Z,4928.00
2019-06-20T07:37:55.018Z,4900.00
2019-06-20T07:38:54.966Z,5008.00
2019-06-20T07:39:54.949Z,5232.00
2019-06-20T07:40:54.951Z,5188.00
2019-06-20T07:41:54.879Z,5064.00
2019-06-20T07:42:54.861Z,4920.00
2019-06-20T07:43:54.789Z,4908.00
2019-06-20T07:44:54.809Z,5052.00
2019-06-20T07:46:02.409Z,5268.00
2019-06-20T07:46:54.700Z,5620.00
2019-06-20T07:47:54.804Z,5944.00
2019-06-20T07:48:54.645Z,6248.00
2019-06-20T07:49:54.590Z,6196.00
2019-06-20T07:50:54.567Z,5824.00
2019-06-20T07:51:54.547Z,6232.00
2019-06-20T07:53:02.040Z,6352.00
2019-06-20T07:53:54.488Z,6664.00
2019-06-20T07:54:54.435Z,7148.00
2019-06-20T07:55:54.401Z,7932.00
2019-06-20T07:56:54.365Z,8084.00
2019-06-20T07:57:54.336Z,7872.00
2019-06-20T07:58:54.290Z,8060.00
2019-06-20T07:59:54.276Z,8576.00
2019-06-20T08:00:54.232Z,8788.00
2019-06-20T08:01:54.269Z,8924.00
2019-06-20T08:02:54.164Z,8988.00
2019-06-20T08:03:54.136Z,7264.00
2019-06-20T08:04:54.124Z,6928.00
2019-06-20T08:05:54.071Z,6876.00
2019-06-20T08:06:54.157Z,6660.00
2019-06-20T08:07:54.004Z,5852.00
2019-06-20T08:08:53.976Z,5724.00
2019-06-20T08:09:53.950Z,5392.00
2019-06-20T08:10:53.912Z,5516.00
2019-06-20T08:11:53.877Z,5572.00
2019-06-20T08:12:53.876Z,5444.00
2019-06-20T08:13:53.811Z,5344.00
2019-06-20T08:14:53.785Z,5140.00
2019-06-20T08:15:53.771Z,5144.00
2019-06-20T08:16:53.719Z,4804.00
2019-06-20T08:17:53.695Z,4464.00
2019-06-20T08:18:53.661Z,4380.00
2019-06-20T08:19:53.622Z,4456.00
2019-06-20T08:20:53.591Z,4648.00
2019-06-20T08:21:53.565Z,4588.00
2019-06-20T08:22:53.529Z,4584.00
2019-06-20T08:23:53.494Z,4680.00
2019-06-20T08:24:54.875Z,4748.00
2019-06-20T08:25:53.446Z,4796.00
2019-06-20T08:26:53.405Z,4868.00
2019-06-20T08:27:53.369Z,4932.00
2019-06-20T08:29:07.375Z,5036.00
2019-06-20T08:29:53.303Z,5124.00
2019-06-20T08:30:53.270Z,5140.00
2019-06-20T08:31:53.241Z,5180.00
2019-06-20T08:32:53.220Z,5200.00
2019-06-20T08:33:53.178Z,5308.00
2019-06-20T08:34:53.147Z,5476.00
2019-06-20T08:35:53.116Z,5492.00
2019-06-20T08:36:53.086Z,5404.00
2019-06-20T08:37:53.052Z,5240.00
2019-06-20T08:38:53.024Z,5228.00
2019-06-20T08:39:52.982Z,5152.00
2019-06-20T08:40:52.955Z,5084.00
2019-06-20T08:41:52.925Z,5020.00
2019-06-20T08:42:52.883Z,5016.00
2019-06-20T08:43:52.853Z,5016.00
2019-06-20T08:44:52.840Z,4972.00
2019-06-20T08:45:52.796Z,4968.00
2019-06-20T08:46:52.764Z,4948.00
2019-06-20T08:47:52.730Z,4888.00
2019-06-20T08:48:52.696Z,4872.00
2019-06-20T08:49:52.660Z,5052.00
2019-06-20T08:50:52.636Z,5148.00
2019-06-20T08:51:52.646Z,5120.00
2019-06-20T08:52:52.574Z,5292.00
2019-06-20T08:53:52.541Z,5360.00
2019-06-20T08:54:52.503Z,5304.00
2019-06-20T08:55:52.477Z,5236.00
2019-06-20T08:56:52.510Z,5228.00
2019-06-20T08:57:52.521Z,5128.00
2019-06-20T08:58:52.386Z,5424.00
2019-06-20T08:59:52.374Z,7384.00
2019-06-20T09:00:52.435Z,5788.00
2019-06-20T09:01:52.474Z,5656.00
2019-06-20T09:02:52.260Z,5484.00
2019-06-20T09:03:52.252Z,5336.00
2019-06-20T09:04:54.810Z,5392.00
2019-06-20T09:05:54.848Z,6744.00
2019-06-20T09:06:53.968Z,6980.00
2019-06-20T09:07:53.578Z,7408.00
2019-06-20T09:08:52.075Z,7736.00
2019-06-20T09:09:52.956Z,6980.00
2019-06-20T09:10:54.143Z,7448.00
2019-06-20T09:11:51.969Z,8048.00
2019-06-20T09:12:53.682Z,7628.00
2019-06-20T09:13:53.750Z,6476.00
2019-06-20T09:14:52.611Z,6540.00
2019-06-20T09:15:52.218Z,6796.00
2019-06-20T09:16:52.323Z,6860.00
2019-06-20T09:17:52.956Z,6412.00
2019-06-20T09:18:53.216Z,6024.00
2019-06-20T09:19:52.848Z,5876.00
2019-06-20T09:20:52.688Z,5784.00
2019-06-20T09:21:52.558Z,5788.00
2019-06-20T09:22:52.311Z,5904.00
2019-06-20T09:23:52.635Z,6276.00
2019-06-20T09:24:52.057Z,5348.00
2019-06-20T09:25:52.323Z,4884.00
2019-06-20T09:26:52.419Z,5084.00
2019-06-20T09:27:52.724Z,5136.00
2019-06-20T09:28:52.673Z,5152.00
2019-06-20T09:29:51.584Z,5372.00
2019-06-20T09:30:52.238Z,5664.00
2019-06-20T09:31:52.526Z,5916.00
2019-06-20T09:32:52.255Z,6276.00
2019-06-20T09:33:52.334Z,6288.00
2019-06-20T09:34:51.815Z,6152.00
2019-06-20T09:35:52.679Z,5936.00
2019-06-20T09:50:10.270Z,5560.00
2019-06-20T09:51:10.205Z,5892.00
2019-06-20T09:52:10.175Z,6120.00
2019-06-20T09:53:10.136Z,4944.00
2019-06-20T09:54:10.107Z,4952.00
2019-06-20T09:55:10.069Z,6024.00
2019-06-20T09:56:10.030Z,5332.00
2019-06-20T09:57:09.998Z,6280.00
2019-06-20T09:58:09.969Z,6388.00
2019-06-20T09:59:26.569Z,6744.00
2019-06-20T10:00:10.810Z,5840.00
2019-06-20T10:01:09.867Z,6644.00
2019-06-20T10:02:09.837Z,6748.00
2019-06-20T10:03:09.810Z,6900.00
2019-06-20T10:04:09.774Z,7500.00
2019-06-20T10:05:09.744Z,6660.00
2019-06-20T10:06:13.883Z,7060.00
2019-06-20T10:07:09.677Z,6360.00
2019-06-20T10:08:09.652Z,7004.00
2019-06-20T10:09:09.615Z,6564.00
2019-06-20T10:10:09.579Z,7084.00
2019-06-20T10:11:09.549Z,6876.00
2019-06-20T10:12:09.521Z,5180.00
2019-06-20T10:13:09.490Z,4848.00
2019-06-20T10:14:09.457Z,4828.00
2019-06-20T10:15:09.428Z,4684.00
2019-06-20T10:16:09.391Z,4712.00
2019-06-20T10:17:09.361Z,4880.00
2019-06-20T10:18:09.340Z,5068.00
2019-06-20T10:19:09.303Z,5484.00
2019-06-20T10:20:09.268Z,6012.00
2019-06-20T10:21:09.237Z,6956.00
2019-06-20T10:22:09.208Z,5908.00
2019-06-20T10:23:09.175Z,5600.00
2019-06-20T10:24:09.153Z,5740.00
2019-06-20T10:25:09.116Z,7320.00
2019-06-20T10:26:09.104Z,6440.00
2019-06-20T10:27:09.058Z,6764.00
2019-06-20T10:28:09.022Z,5972.00
2019-06-20T10:29:08.997Z,5108.00
2019-06-20T10:30:14.435Z,4856.00
2019-06-20T10:31:08.929Z,4568.00
2019-06-20T10:32:08.905Z,4908.00
2019-06-20T10:33:08.868Z,5144.00
2019-06-20T10:34:08.838Z,4828.00
2019-06-20T10:35:08.807Z,4408.00
2019-06-20T10:36:08.781Z,4216.00
2019-06-20T10:37:08.750Z,4512.00
2019-06-20T10:38:08.717Z,4980.00
2019-06-20T10:39:08.690Z,5264.00
2019-06-20T10:40:08.652Z,5680.00
2019-06-20T10:41:08.623Z,5556.00
2019-06-20T10:42:08.595Z,5500.00
2019-06-20T10:43:08.593Z,5572.00
2019-06-20T10:44:08.545Z,5788.00
2019-06-20T10:45:08.504Z,5816.00
2019-06-20T10:46:08.475Z,5532.00
2019-06-20T10:47:08.443Z,5296.00
2019-06-20T10:48:08.409Z,4928.00
2019-06-20T10:49:08.382Z,4540.00
2019-06-20T10:50:08.349Z,4352.00
2019-06-20T10:51:08.321Z,4380.00
2019-06-20T10:52:08.286Z,4620.00
2019-06-20T10:53:08.263Z,4656.00
2019-06-20T10:54:08.234Z,4320.00
2019-06-20T10:55:08.193Z,4004.00
2019-06-20T10:56:08.181Z,3896.00
2019-06-20T10:57:08.136Z,3944.00
2019-06-20T10:58:08.105Z,4200.00
2019-06-20T10:59:08.076Z,4920.00
2019-06-20T11:00:08.066Z,5840.00
2019-06-20T11:01:08.012Z,6440.00
2019-06-20T11:02:07.982Z,7244.00
2019-06-20T11:03:07.950Z,7944.00
2019-06-20T11:04:07.924Z,8412.00
2019-06-20T11:05:07.894Z,8048.00
2019-06-20T11:06:07.864Z,8116.00
2019-06-20T11:07:07.828Z,7720.00
2019-06-20T11:08:07.813Z,7364.00
2019-06-20T11:09:07.771Z,6484.00
2019-06-20T11:10:07.740Z,6244.00
2019-06-20T11:11:07.712Z,6412.00
2019-06-20T11:12:07.716Z,6328.00
2019-06-20T11:13:07.654Z,6548.00
2019-06-20T11:14:07.618Z,7024.00
2019-06-20T11:15:07.583Z,5924.00
2019-06-20T11:16:07.560Z,5940.00
2019-06-20T11:17:07.527Z,5596.00
2019-06-20T11:18:07.517Z,4428.00
2019-06-20T11:19:07.473Z,4252.00
2019-06-20T11:20:07.439Z,4224.00
2019-06-20T11:21:07.406Z,4448.00
2019-06-20T11:22:07.376Z,5632.00
2019-06-20T11:23:07.349Z,5840.00
2019-06-20T11:24:07.314Z,4412.00
2019-06-20T11:25:07.285Z,4088.00
2019-06-20T11:26:07.257Z,4120.00
2019-06-20T11:27:07.229Z,4436.00
2019-06-20T11:28:07.207Z,4928.00
2019-06-20T11:29:07.167Z,5412.00
2019-06-20T11:30:07.138Z,5656.00
2019-06-20T11:31:07.114Z,5876.00
2019-06-20T11:32:07.074Z,6028.00
2019-06-20T11:33:07.044Z,6176.00
2019-06-20T11:34:07.015Z,6028.00
2019-06-20T11:35:07.030Z,5812.00
2019-06-20T11:36:06.960Z,5772.00
2019-06-20T11:37:06.927Z,5808.00
2019-06-20T11:38:06.894Z,5816.00
2019-06-20T11:39:06.864Z,5912.00
2019-06-20T11:40:06.841Z,5852.00
2019-06-20T11:41:06.815Z,5856.00
2019-06-20T11:42:06.778Z,5524.00
2019-06-20T11:43:06.756Z,5336.00
2019-06-20T11:44:06.712Z,5052.00
2019-06-20T11:45:06.685Z,4780.00
2019-06-20T11:46:06.657Z,4792.00
2019-06-20T11:47:06.633Z,4828.00
2019-06-20T11:48:06.598Z,4956.00
2019-06-20T11:49:06.566Z,5568.00
2019-06-20T11:50:06.537Z,5980.00
2019-06-20T11:51:06.508Z,6132.00
2019-06-20T11:52:06.471Z,6160.00
2019-06-20T11:53:06.442Z,6044.00
2019-06-20T11:54:06.415Z,5848.00
2019-06-20T11:55:06.386Z,5316.00
2019-06-20T11:56:06.356Z,4560.00
2019-06-20T11:57:06.326Z,4072.00
2019-06-20T11:58:06.292Z,3796.00
2019-06-20T11:59:06.265Z,3624.00
2019-06-20T12:00:06.237Z,3576.00
2019-06-20T12:01:06.204Z,3640.00
2019-06-20T12:02:06.174Z,3580.00
2019-06-20T12:03:06.150Z,3304.00
2019-06-20T12:04:08.705Z,3000.00
2019-06-20T12:05:06.080Z,2692.00
2019-06-20T12:06:06.052Z,2188.00
2019-06-20T12:07:06.019Z,1680.00
2019-06-20T12:08:05.996Z,1328.00
2019-06-20T12:09:05.962Z,1120.00
2019-06-20T12:10:05.932Z,976.00
2019-06-20T12:11:05.902Z,908.00
2019-06-20T12:12:05.873Z,880.00
2019-06-20T12:13:05.840Z,896.00
2019-06-20T12:14:05.810Z,976.00
2019-06-20T12:15:07.117Z,1080.00
2019-06-20T12:16:05.748Z,1188.00
2019-06-20T12:17:05.718Z,1256.00
2019-06-20T12:18:05.690Z,1232.00
2019-06-20T12:19:05.656Z,1148.00
2019-06-20T12:20:05.630Z,1096.00
2019-06-20T12:21:05.595Z,1072.00
2019-06-20T12:22:05.567Z,1052.00
2019-06-20T12:23:05.537Z,1064.00
2019-06-20T12:24:08.359Z,1132.00
2019-06-20T12:25:05.470Z,1192.00
2019-06-20T12:26:05.443Z,1320.00
2019-06-20T12:27:05.411Z,1512.00
2019-06-20T12:28:05.385Z,1744.00
2019-06-20T12:29:05.349Z,2000.00
2019-06-20T12:30:05.314Z,2276.00
2019-06-20T12:31:18.545Z,2612.00
2019-06-20T12:32:05.255Z,3020.00
2019-06-20T12:33:05.222Z,3404.00
2019-06-20T12:34:05.190Z,3548.00
2019-06-20T12:35:05.172Z,3624.00
2019-06-20T12:36:05.123Z,3776.00
2019-06-20T12:37:05.094Z,3908.00
2019-06-20T12:38:05.062Z,4004.00
2019-06-20T12:39:05.041Z,4332.00
2019-06-20T12:40:05.001Z,4920.00
2019-06-20T12:41:04.969Z,5780.00
2019-06-20T12:42:04.937Z,5276.00
2019-06-20T12:43:04.923Z,4876.00
2019-06-20T12:44:04.874Z,3812.00
2019-06-20T12:45:04.846Z,3040.00
2019-06-20T12:46:04.811Z,2636.00
2019-06-20T12:47:04.781Z,2536.00
2019-06-20T12:48:04.744Z,2568.00
2019-06-20T12:49:04.714Z,2636.00
2019-06-20T12:50:04.693Z,2636.00
2019-06-20T12:51:04.650Z,2568.00
2019-06-20T12:52:04.624Z,2464.00
2019-06-20T12:53:04.587Z,2324.00
2019-06-20T12:54:04.557Z,2100.00
2019-06-20T12:55:04.531Z,1884.00
2019-06-20T12:56:04.503Z,1776.00
2019-06-20T12:57:04.465Z,1724.00
2019-06-20T12:58:04.434Z,1700.00
2019-06-20T12:59:04.402Z,1644.00
2019-06-20T13:00:04.364Z,1628.00
2019-06-20T13:01:04.332Z,1676.00
2019-06-20T13:02:04.301Z,1796.00
2019-06-20T13:03:04.268Z,2004.00
2019-06-20T13:04:04.242Z,2252.00
2019-06-20T13:05:04.207Z,2444.00
2019-06-20T13:06:04.174Z,2560.00
2019-06-20T13:07:04.143Z,2684.00
2019-06-20T13:08:04.108Z,2700.00
2019-06-20T13:09:04.076Z,2672.00
2019-06-20T13:10:04.043Z,2484.00
2019-06-20T13:11:04.015Z,2272.00
2019-06-20T13:12:03.994Z,2112.00
2019-06-20T13:13:03.956Z,2020.00
2019-06-20T13:14:03.920Z,1960.00
2019-06-20T13:15:03.908Z,1948.00
2019-06-20T13:16:03.853Z,1980.00
2019-06-20T13:17:03.818Z,2012.00
2019-06-20T13:18:03.785Z,2180.00
2019-06-20T13:19:03.760Z,2336.00
2019-06-20T13:20:03.745Z,2600.00
2019-06-20T13:21:03.690Z,2844.00
2019-06-20T13:22:03.667Z,2988.00
2019-06-20T13:23:03.619Z,3388.00
2019-06-20T13:24:03.594Z,3772.00
2019-06-20T13:25:03.566Z,3936.00
2019-06-20T13:26:03.526Z,4136.00
2019-06-20T13:27:03.495Z,4024.00
2019-06-20T13:28:03.457Z,3620.00
2019-06-20T13:29:04.606Z,3232.00
2019-06-20T13:30:03.396Z,2956.00
2019-06-20T13:31:03.372Z,2640.00
2019-06-20T13:32:04.543Z,2340.00
2019-06-20T13:33:03.297Z,2152.00
2019-06-20T13:34:03.262Z,2264.00
2019-06-20T13:35:03.233Z,1964.00
2019-06-20T13:36:03.200Z,1740.00
2019-06-20T13:37:03.167Z,1636.00
2019-06-20T13:38:03.133Z,1508.00
2019-06-20T13:39:03.100Z,1516.00
2019-06-20T13:40:03.078Z,1596.00
2019-06-20T13:41:03.134Z,1592.00
2019-06-20T13:42:03.018Z,1524.00
2019-06-20T13:43:03.769Z,1396.00
2019-06-20T13:44:02.950Z,1348.00
2019-06-20T13:45:02.902Z,1416.00
2019-06-20T13:46:02.875Z,1668.00
2019-06-20T13:47:02.869Z,1668.00
2019-06-20T13:48:02.804Z,1728.00
2019-06-20T13:49:02.770Z,2028.00
2019-06-20T13:50:02.744Z,1936.00
2019-06-20T13:51:02.745Z,1996.00
2019-06-20T13:52:02.676Z,2392.00
2019-06-20T13:53:02.643Z,2544.00
2019-06-20T13:54:02.613Z,2684.00
2019-06-20T13:55:02.577Z,3148.00
2019-06-20T13:56:02.586Z,3712.00
2019-06-20T13:57:02.521Z,3588.00
2019-06-20T13:58:02.473Z,3284.00
2019-06-20T13:59:02.442Z,2740.00
2019-06-20T14:00:02.412Z,2344.00
2019-06-20T14:01:02.418Z,2376.00
2019-06-20T14:02:06.526Z,2424.00
2019-06-20T14:03:02.310Z,2440.00
2019-06-20T14:04:02.306Z,2488.00
2019-06-20T14:05:02.249Z,2476.00
2019-06-20T14:06:02.215Z,2700.00
2019-06-20T14:07:02.179Z,2860.00
2019-06-20T14:08:02.145Z,2548.00
2019-06-20T14:09:02.115Z,2304.00
2019-06-20T14:10:02.075Z,2104.00
2019-06-20T14:11:02.153Z,2004.00
2019-06-20T14:12:02.034Z,1968.00
2019-06-20T14:13:01.981Z,1968.00
2019-06-20T14:14:01.952Z,2068.00
2019-06-20T14:15:01.912Z,2224.00
2019-06-20T14:16:01.877Z,2448.00
2019-06-20T14:17:01.948Z,2580.00
2019-06-20T14:18:01.851Z,2708.00
2019-06-20T14:19:01.800Z,2796.00
2019-06-20T14:20:01.878Z,2820.00
2019-06-20T14:21:01.916Z,2676.00
2019-06-20T14:22:01.673Z,2636.00
2019-06-20T14:23:01.643Z,2808.00
2019-06-20T14:24:01.613Z,2952.00
2019-06-20T14:25:01.580Z,2932.00
2019-06-20T14:26:01.544Z,3200.00
2019-06-20T14:27:02.412Z,3452.00
2019-06-20T14:28:01.474Z,3832.00
2019-06-20T14:29:01.454Z,3276.00
2019-06-20T14:30:01.430Z,3396.00
2019-06-20T14:31:01.453Z,3420.00
2019-06-20T14:32:01.343Z,3356.00
2019-06-20T14:33:01.312Z,3184.00
2019-06-20T14:34:01.272Z,2956.00
2019-06-20T14:35:01.243Z,3360.00
2019-06-20T14:36:01.214Z,3588.00
2019-06-20T14:37:01.190Z,3436.00
2019-06-20T14:38:01.145Z,2740.00
2019-06-20T14:39:01.111Z,2808.00
2019-06-20T14:40:01.073Z,2824.00
2019-06-20T14:41:01.297Z,2932.00
2019-06-20T14:42:01.005Z,3064.00
2019-06-20T14:43:00.973Z,3268.00
2019-06-20T14:44:00.953Z,3568.00
2019-06-20T14:45:00.907Z,3784.00
2019-06-20T14:46:00.875Z,3996.00
2019-06-20T14:47:00.840Z,4176.00
2019-06-20T14:48:00.808Z,4308.00
2019-06-20T14:49:00.768Z,4608.00
2019-06-20T14:50:00.741Z,4744.00
2019-06-20T14:51:00.733Z,4656.00
2019-06-20T14:52:00.693Z,4416.00
2019-06-20T14:53:00.664Z,4168.00
2019-06-20T14:54:00.603Z,4160.00
2019-06-20T14:55:00.577Z,4220.00
2019-06-20T14:56:00.541Z,4460.00
2019-06-20T14:57:00.508Z,4404.00
2019-06-20T14:58:00.474Z,4652.00
2019-06-20T14:59:00.445Z,4996.00
2019-06-20T15:00:00.406Z,5356.00
2019-06-20T15:01:00.403Z,5528.00
2019-06-20T15:02:00.413Z,5572.00
2019-06-20T15:03:00.306Z,5732.00
2019-06-20T15:04:00.273Z,5220.00
2019-06-20T15:05:00.244Z,5060.00
2019-06-20T15:06:00.210Z,5076.00
2019-06-20T15:07:00.176Z,4676.00
2019-06-20T15:08:00.143Z,4620.00
2019-06-20T15:09:05.566Z,4176.00
2019-06-20T15:10:00.078Z,4004.00
2019-06-20T15:11:00.239Z,3860.00
2019-06-20T15:12:00.009Z,3788.00
2019-06-20T15:12:59.974Z,3728.00
2019-06-20T15:13:59.941Z,3660.00
2019-06-20T15:14:59.908Z,3712.00
2019-06-20T15:15:59.887Z,3744.00
2019-06-20T15:16:59.846Z,3748.00
2019-06-20T15:17:59.814Z,3836.00
2019-06-20T15:18:59.780Z,3864.00
2019-06-20T15:19:59.747Z,3772.00
2019-06-20T15:20:59.730Z,3904.00
2019-06-20T15:21:59.683Z,4024.00
2019-06-20T15:22:59.648Z,4112.00
2019-06-20T15:23:59.618Z,4136.00
2019-06-20T15:24:59.587Z,4024.00
2019-06-20T15:25:59.560Z,3852.00
2019-06-20T15:26:59.625Z,3828.00
2019-06-20T15:27:59.541Z,3780.00
2019-06-20T15:28:59.455Z,3604.00
2019-06-20T15:29:59.422Z,3408.00
2019-06-20T15:30:59.893Z,3400.00
2019-06-20T15:31:59.352Z,3100.00
2019-06-20T15:33:09.733Z,2816.00
2019-06-20T15:33:59.288Z,2724.00
2019-06-20T15:35:01.762Z,2680.00
2019-06-20T15:35:59.238Z,2628.00
2019-06-20T15:36:59.192Z,2668.00
2019-06-20T15:37:59.154Z,2772.00
2019-06-20T15:38:59.124Z,2752.00
2019-06-20T15:39:59.098Z,2740.00
2019-06-20T15:40:59.064Z,2856.00
2019-06-20T15:41:59.031Z,3024.00
2019-06-20T15:42:59.055Z,3224.00
2019-06-20T15:43:58.963Z,3496.00
2019-06-20T15:44:58.929Z,3692.00
2019-06-20T15:46:08.229Z,3824.00
2019-06-20T15:48:03.934Z,4156.00
2019-06-20T15:49:15.432Z,4348.00
2019-06-20T15:50:03.479Z,4396.00
2019-06-20T15:51:03.844Z,4300.00
2019-06-20T15:52:03.419Z,4268.00
2019-06-20T15:53:03.393Z,4284.00
2019-06-20T15:54:03.416Z,4340.00
2019-06-20T15:55:03.316Z,4264.00
2019-06-20T15:56:03.287Z,3992.00
2019-06-20T15:57:03.275Z,3784.00
2019-06-20T15:58:03.218Z,3728.00
2019-06-20T15:59:03.190Z,3760.00
2019-06-20T16:00:03.155Z,3832.00
2019-06-20T16:01:03.126Z,3968.00
2019-06-20T16:02:03.096Z,4004.00